Time;durP1;ratioP1;P1;durP2;ratioP2;P2;SDS_P1;SDS_P2;PMS_P1;PMS_P2;Temp;Humidity;BMP_temperature;BMP_pressure;BME280_temperature;BME280_humidity;BME280_pressure;Samples;Min_cycle;Max_cycle;Signal;HPM_P1;HPM_P2
2024/03/09 00:00:28;;;;;;;45.45;24.80;;;6.40;99.90;;;;;;4845656;29;20029;-87
2024/03/09 00:02:56;;;;;;;43.10;24.77;;;6.40;99.90;;;;;;4841842;29;20045;-87
2024/03/09 00:05:24;;;;;;;39.25;23.27;;;6.40;99.90;;;;;;4834030;29;20449;-86
2024/03/09 00:07:54;;;;;;;49.67;25.08;;;6.40;99.90;;;;;;4825932;29;20133;-87
2024/03/09 00:10:20;;;;;;;41.63;24.08;;;6.40;99.90;;;;;;4826239;29;20026;-87
2024/03/09 00:12:47;;;;;;;42.65;24.42;;;6.30;99.90;;;;;;4841232;29;20086;-87
2024/03/09 00:15:15;;;;;;;48.15;25.92;;;6.30;99.90;;;;;;4843824;29;20050;-86
2024/03/09 00:17:47;;;;;;;49.03;26.63;;;6.30;99.90;;;;;;4842364;29;20120;-87
2024/03/09 00:20:19;;;;;;;43.90;24.52;;;6.20;99.90;;;;;;4844753;29;20101;-86
2024/03/09 00:22:45;;;;;;;43.72;25.27;;;6.20;99.90;;;;;;4844110;29;20034;-86
2024/03/09 00:25:11;;;;;;;42.75;24.42;;;6.20;99.90;;;;;;4844180;29;20033;-87
2024/03/09 00:27:40;;;;;;;51.45;26.63;;;6.10;99.90;;;;;;4844081;29;20030;-86
2024/03/09 00:30:13;;;;;;;46.90;24.58;;;6.10;99.90;;;;;;4843956;29;20490;-86
2024/03/09 00:32:42;;;;;;;44.63;24.35;;;6.20;99.90;;;;;;4844043;29;20030;-86
2024/03/09 00:35:09;;;;;;;42.78;25.08;;;6.10;99.90;;;;;;4843445;29;20037;-88
2024/03/09 00:37:36;;;;;;;44.28;24.65;;;6.10;99.90;;;;;;4843620;29;20560;-88
2024/03/09 00:40:04;;;;;;;51.35;26.35;;;6.10;99.90;;;;;;4843974;29;20037;-86
2024/03/09 00:42:32;;;;;;;46.33;25.85;;;6.10;99.90;;;;;;4841637;29;20049;-86
2024/03/09 00:45:01;;;;;;;46.63;25.20;;;6.10;99.90;;;;;;4842497;29;20078;-86
2024/03/09 00:47:26;;;;;;;46.17;26.33;;;6.00;99.90;;;;;;4842756;29;20030;-85
2024/03/09 00:49:52;;;;;;;43.00;25.75;;;6.10;99.90;;;;;;4841520;29;20029;-88
2024/03/09 00:52:19;;;;;;;47.58;26.42;;;6.00;99.90;;;;;;4842728;29;20479;-85
2024/03/09 00:54:44;;;;;;;46.75;26.50;;;6.00;99.90;;;;;;4842115;29;20060;-85
2024/03/09 00:57:10;;;;;;;42.10;23.70;;;6.10;99.90;;;;;;4842308;29;20479;-85
2024/03/09 00:59:35;;;;;;;48.85;26.05;;;6.10;99.90;;;;;;4856938;29;20030;-85
2024/03/09 01:02:01;;;;;;;46.13;25.40;;;6.10;99.90;;;;;;4845228;29;20037;-86
2024/03/09 01:04:30;;;;;;;44.47;24.92;;;6.10;99.90;;;;;;4843465;29;20057;-85
2024/03/09 01:06:57;;;;;;;46.53;26.17;;;6.10;99.90;;;;;;4842644;29;20574;-85
2024/03/09 01:09:25;;;;;;;47.53;26.75;;;6.10;99.90;;;;;;4843249;29;20065;-88
2024/03/09 01:11:52;;;;;;;46.30;25.77;;;6.10;99.90;;;;;;4842708;29;20021;-86
2024/03/09 01:14:18;;;;;;;48.83;26.45;;;6.00;99.90;;;;;;4841714;29;20116;-88
2024/03/09 01:16:44;;;;;;;44.33;24.67;;;5.90;99.90;;;;;;4841934;29;20163;-85
2024/03/09 01:19:10;;;;;;;51.10;25.55;;;5.90;99.90;;;;;;4843285;29;20285;-89
2024/03/09 01:21:36;;;;;;;44.50;24.80;;;5.90;99.90;;;;;;4842336;29;20022;-88
2024/03/09 01:24:01;;;;;;;44.22;25.80;;;5.90;99.90;;;;;;4842792;29;20046;-87
2024/03/09 01:26:27;;;;;;;45.95;26.65;;;5.90;99.90;;;;;;4843263;29;20106;-86
2024/03/09 01:28:54;;;;;;;43.25;24.85;;;6.00;99.90;;;;;;4842250;29;20078;-86
2024/03/09 01:31:27;;;;;;;47.30;26.45;;;5.90;99.90;;;;;;4842819;29;20035;-84
2024/03/09 01:33:53;;;;;;;44.80;25.58;;;6.00;99.90;;;;;;4842410;29;20379;-86
2024/03/09 01:36:19;;;;;;;45.15;24.50;;;5.90;99.90;;;;;;4843595;29;20037;-89
2024/03/09 01:38:44;;;;;;;46.63;26.42;;;5.90;99.90;;;;;;4841848;29;20368;-85
2024/03/09 01:41:10;;;;;;;51.00;26.92;;;5.90;99.90;;;;;;4842617;29;20463;-84
2024/03/09 01:43:35;;;;;;;44.90;25.48;;;5.90;99.90;;;;;;4843186;29;20038;-86
2024/03/09 01:46:03;;;;;;;45.17;26.02;;;5.90;99.90;;;;;;4843182;29;20030;-86
2024/03/09 01:48:29;;;;;;;49.15;26.00;;;5.80;99.90;;;;;;4843248;29;20034;-87
2024/03/09 01:50:55;;;;;;;46.80;25.80;;;5.80;99.90;;;;;;4843375;29;20034;-87
2024/03/09 01:53:21;;;;;;;47.88;26.70;;;5.80;99.90;;;;;;4843035;29;20125;-87
2024/03/09 01:55:48;;;;;;;45.63;25.73;;;5.80;99.90;;;;;;4841719;29;20037;-87
2024/03/09 01:58:17;;;;;;;46.22;26.02;;;5.80;99.90;;;;;;4841686;29;20121;-87
2024/03/09 02:00:43;;;;;;;47.53;25.83;;;5.80;99.90;;;;;;4855261;29;20040;-87
2024/03/09 02:03:12;;;;;;;47.88;26.85;;;5.80;99.90;;;;;;4861452;29;20033;-87
2024/03/09 02:05:39;;;;;;;47.45;26.95;;;5.80;99.90;;;;;;4835419;29;20159;-86
2024/03/09 02:08:06;;;;;;;46.05;26.55;;;5.70;99.90;;;;;;4825463;29;20030;-88
2024/03/09 02:10:33;;;;;;;47.05;25.45;;;5.80;99.90;;;;;;4824566;29;20113;-89
2024/03/09 02:13:00;;;;;;;48.13;25.63;;;5.80;99.90;;;;;;4827356;29;20454;-87
2024/03/09 02:15:29;;;;;;;49.03;26.20;;;5.80;99.90;;;;;;4842498;29;20037;-88
2024/03/09 02:17:58;;;;;;;46.40;26.13;;;5.80;99.90;;;;;;4841382;29;20097;-87
2024/03/09 02:20:27;;;;;;;52.17;25.98;;;5.80;99.90;;;;;;4842067;29;20026;-88
2024/03/09 02:22:54;;;;;;;47.75;26.30;;;5.80;99.90;;;;;;4841694;29;20034;-87
2024/03/09 02:25:24;;;;;;;46.92;26.73;;;5.80;99.90;;;;;;4842087;29;20502;-87
2024/03/09 02:27:52;;;;;;;46.95;26.60;;;5.80;99.90;;;;;;4842098;29;20113;-87
2024/03/09 02:30:19;;;;;;;46.75;27.20;;;5.80;99.90;;;;;;4850037;29;20474;-87
2024/03/09 02:32:45;;;;;;;45.45;26.48;;;5.80;99.90;;;;;;4860988;29;20394;-87
2024/03/09 02:35:11;;;;;;;44.00;25.92;;;5.80;99.90;;;;;;4860969;29;20097;-85
2024/03/09 02:37:37;;;;;;;55.13;27.15;;;5.80;99.90;;;;;;4842476;29;20118;-87
2024/03/09 02:40:04;;;;;;;45.65;26.17;;;5.70;99.90;;;;;;4841580;29;20034;-87
2024/03/09 02:42:32;;;;;;;47.67;27.77;;;5.70;99.90;;;;;;4841114;29;20411;-87
2024/03/09 02:44:57;;;;;;;44.25;24.55;;;5.80;99.90;;;;;;4842452;29;20038;-89
2024/03/09 02:47:23;;;;;;;55.03;28.35;;;5.90;99.90;;;;;;4841915;29;20049;-86
2024/03/09 02:49:49;;;;;;;44.63;26.15;;;5.80;99.90;;;;;;4842668;29;20061;-87
2024/03/09 02:52:15;;;;;;;46.88;27.27;;;5.80;99.90;;;;;;4842082;29;20037;-87
2024/03/09 02:54:42;;;;;;;48.70;27.77;;;5.70;99.90;;;;;;4842238;29;20030;-87
2024/03/09 02:57:08;;;;;;;46.17;25.73;;;6.00;99.90;;;;;;4841963;29;20045;-87
2024/03/09 02:59:35;;;;;;;44.20;25.55;;;5.70;99.90;;;;;;4826120;29;20035;-87
2024/03/09 03:02:04;;;;;;;44.67;25.98;;;5.70;99.90;;;;;;4840996;29;20086;-87
2024/03/09 03:04:30;;;;;;;49.00;26.37;;;5.80;99.90;;;;;;4842418;29;20065;-86
2024/03/09 03:06:57;;;;;;;45.17;26.33;;;5.80;99.90;;;;;;4842104;29;20307;-87
2024/03/09 03:09:22;;;;;;;47.72;26.10;;;5.80;99.90;;;;;;4843766;29;20033;-87
2024/03/09 03:11:49;;;;;;;46.58;25.65;;;5.80;99.90;;;;;;4845914;29;20037;-86
2024/03/09 03:14:15;;;;;;;43.25;24.90;;;5.80;99.90;;;;;;4845885;29;20041;-87
2024/03/09 03:16:41;;;;;;;46.42;25.55;;;5.80;99.90;;;;;;4844863;29;20353;-90
2024/03/09 03:19:09;;;;;;;50.83;27.08;;;5.80;99.90;;;;;;4845378;29;20514;-88
2024/03/09 03:21:35;;;;;;;47.85;27.13;;;5.70;99.90;;;;;;4844373;29;20029;-87
2024/03/09 03:24:02;;;;;;;43.05;26.23;;;5.80;99.90;;;;;;4845012;29;20046;-86
2024/03/09 03:26:30;;;;;;;47.78;25.30;;;5.70;99.90;;;;;;4843870;29;20030;-84
2024/03/09 03:28:55;;;;;;;46.50;26.20;;;5.70;99.90;;;;;;4845063;29;20804;-85
2024/03/09 03:31:21;;;;;;;47.83;26.58;;;5.80;99.90;;;;;;4844952;29;20062;-87
2024/03/09 03:33:49;;;;;;;52.63;26.60;;;5.80;99.90;;;;;;4844105;29;20376;-86
2024/03/09 03:36:18;;;;;;;44.17;25.75;;;5.70;99.90;;;;;;4845061;29;20030;-86
2024/03/09 03:38:44;;;;;;;45.78;25.45;;;5.70;99.90;;;;;;4843980;29;20382;-84
2024/03/09 03:41:10;;;;;;;48.42;25.67;;;5.80;99.90;;;;;;4844543;29;20106;-86
2024/03/09 03:43:40;;;;;;;43.88;24.60;;;5.80;99.90;;;;;;4843852;29;20042;-88
2024/03/09 03:46:11;;;;;;;48.50;25.70;;;5.70;99.90;;;;;;4844495;29;20492;-88
2024/03/09 03:48:37;;;;;;;47.28;25.52;;;5.70;99.90;;;;;;4844924;29;20094;-88
2024/03/09 03:51:03;;;;;;;47.35;25.80;;;5.70;99.90;;;;;;4844860;29;20091;-90
2024/03/09 03:53:30;;;;;;;47.67;25.13;;;5.70;99.90;;;;;;4844935;29;20498;-89
2024/03/09 03:55:57;;;;;;;46.53;25.15;;;5.80;99.90;;;;;;4844361;29;20033;-88
2024/03/09 03:58:23;;;;;;;45.00;25.95;;;5.80;99.90;;;;;;4844512;29;20046;-89
2024/03/09 04:00:49;;;;;;;42.92;26.73;;;5.70;99.90;;;;;;4839162;29;20022;-88
2024/03/09 04:03:16;;;;;;;45.78;24.83;;;5.80;99.90;;;;;;4826462;29;20041;-89
2024/03/09 04:05:43;;;;;;;41.42;24.67;;;5.80;99.90;;;;;;4831002;29;20030;-88
2024/03/09 04:08:09;;;;;;;42.42;25.05;;;5.80;99.90;;;;;;4844755;29;20038;-88
2024/03/09 04:10:35;;;;;;;47.65;26.40;;;5.80;99.90;;;;;;4843876;29;20033;-86
2024/03/09 04:13:01;;;;;;;40.58;24.70;;;5.90;99.90;;;;;;4843044;29;20038;-87
2024/03/09 04:15:26;;;;;;;40.65;24.40;;;5.90;99.90;;;;;;4844237;29;20029;-88
2024/03/09 04:17:53;;;;;;;47.20;25.65;;;5.80;99.90;;;;;;4843745;29;20170;-89
2024/03/09 04:20:18;;;;;;;42.70;25.38;;;5.90;99.90;;;;;;4843883;29;20034;-86
2024/03/09 04:22:50;;;;;;;40.58;24.45;;;5.90;99.90;;;;;;4843548;29;20091;-86
2024/03/09 04:25:16;;;;;;;46.20;25.17;;;5.90;99.90;;;;;;4846929;29;20522;-89
2024/03/09 04:27:42;;;;;;;44.90;24.40;;;5.90;99.90;;;;;;4847482;29;20036;-88
2024/03/09 04:30:11;;;;;;;41.20;25.02;;;5.90;99.90;;;;;;4843882;29;20029;-87
2024/03/09 04:32:38;;;;;;;42.70;26.55;;;5.80;99.90;;;;;;4843566;29;20057;-87
2024/03/09 04:35:06;;;;;;;46.03;25.45;;;5.80;99.90;;;;;;4843333;29;20131;-87
2024/03/09 04:37:34;;;;;;;44.95;25.00;;;5.80;99.90;;;;;;4843731;29;20113;-86
2024/03/09 04:40:01;;;;;;;49.85;27.33;;;5.80;99.90;;;;;;4843884;29;20034;-89
2024/03/09 04:42:28;;;;;;;42.85;24.08;;;5.70;99.90;;;;;;4841979;29;20121;-88
2024/03/09 04:44:54;;;;;;;49.88;27.13;;;5.70;99.90;;;;;;4838048;29;20079;-88
2024/03/09 04:47:20;;;;;;;47.78;25.45;;;5.70;99.90;;;;;;4843457;29;20030;-88
2024/03/09 04:49:47;;;;;;;42.65;24.90;;;5.70;99.90;;;;;;4843525;29;20033;-88
2024/03/09 04:52:16;;;;;;;45.08;25.38;;;5.80;99.90;;;;;;4844099;29;20041;-87
2024/03/09 04:54:45;;;;;;;45.03;25.92;;;5.80;99.90;;;;;;4843375;29;20495;-88
2024/03/09 04:57:24;;;;;;;47.08;25.92;;;5.70;99.90;;;;;;4843850;29;20034;-89
2024/03/09 04:59:50;;;;;;;48.70;25.40;;;5.70;99.90;;;;;;4844083;29;20034;-87
2024/03/09 05:02:17;;;;;;;44.20;25.58;;;5.80;99.90;;;;;;4844676;29;20056;-89
2024/03/09 05:04:43;;;;;;;44.55;24.92;;;5.80;99.90;;;;;;4843043;29;20034;-89
2024/03/09 05:07:09;;;;;;;45.50;25.13;;;5.70;99.90;;;;;;4843388;29;20030;-87
2024/03/09 05:09:37;;;;;;;44.70;25.80;;;5.70;99.90;;;;;;4843554;29;20033;-89
2024/03/09 05:12:03;;;;;;;46.90;25.17;;;5.70;99.90;;;;;;4843331;29;20041;-89
2024/03/09 05:14:30;;;;;;;43.15;25.52;;;5.70;99.90;;;;;;4842959;29;20045;-89
2024/03/09 05:16:56;;;;;;;57.83;28.45;;;5.70;99.90;;;;;;4842921;29;20038;-89
2024/03/09 05:19:22;;;;;;;47.78;25.27;;;5.60;99.90;;;;;;4842621;29;20133;-87
2024/03/09 05:21:51;;;;;;;43.58;24.45;;;5.60;99.90;;;;;;4843072;29;20101;-88
2024/03/09 05:24:17;;;;;;;48.10;25.33;;;5.60;99.90;;;;;;4842860;29;20471;-87
2024/03/09 05:26:43;;;;;;;44.38;24.65;;;5.60;99.90;;;;;;4841583;29;20042;-88
2024/03/09 05:29:11;;;;;;;46.10;24.55;;;5.60;99.90;;;;;;4842590;29;20494;-87
2024/03/09 05:31:37;;;;;;;49.28;25.98;;;5.60;99.90;;;;;;4841979;29;20041;-87
2024/03/09 05:34:04;;;;;;;42.85;24.42;;;5.60;99.90;;;;;;4842942;29;20030;-88
2024/03/09 05:36:29;;;;;;;46.10;24.75;;;5.70;99.90;;;;;;4842870;29;20026;-88
2024/03/09 05:38:55;;;;;;;43.00;24.73;;;5.70;99.90;;;;;;4836213;29;20042;-89
2024/03/09 05:41:21;;;;;;;47.10;26.35;;;5.60;99.90;;;;;;4824838;29;20034;-88
2024/03/09 05:43:47;;;;;;;41.58;23.80;;;5.60;99.90;;;;;;4824435;29;20034;-88
2024/03/09 05:46:14;;;;;;;43.13;24.00;;;5.60;99.90;;;;;;4824844;29;20038;-88
2024/03/09 05:48:39;;;;;;;42.58;23.35;;;5.60;99.90;;;;;;4839699;29;20030;-90
2024/03/09 05:51:09;;;;;;;43.03;24.70;;;5.60;99.90;;;;;;4832193;29;20550;-89
2024/03/09 05:53:36;;;;;;;44.60;24.60;;;5.70;99.90;;;;;;4842873;29;20034;-88
2024/03/09 05:56:02;;;;;;;44.80;25.55;;;6.60;99.90;;;;;;4842052;29;20090;-88
2024/03/09 05:58:30;;;;;;;47.97;25.15;;;5.70;99.90;;;;;;4842748;29;20044;-88
2024/03/09 06:00:56;;;;;;;47.20;25.17;;;5.70;99.90;;;;;;4841430;29;20527;-88
2024/03/09 06:03:21;;;;;;;44.42;23.45;;;5.70;99.90;;;;;;4842735;29;20086;-89
2024/03/09 06:05:47;;;;;;;45.55;24.30;;;5.70;99.90;;;;;;4842270;29;20022;-87
2024/03/09 06:08:13;;;;;;;43.65;24.63;;;5.70;99.90;;;;;;4841176;29;20118;-89
2024/03/09 06:10:39;;;;;;;45.08;25.08;;;5.70;99.90;;;;;;4842143;29;20030;-87
2024/03/09 06:13:05;;;;;;;44.70;24.20;;;5.70;99.90;;;;;;4842360;29;20034;-88
2024/03/09 06:15:31;;;;;;;42.47;24.35;;;5.60;99.90;;;;;;4842663;29;20037;-87
2024/03/09 06:17:58;;;;;;;43.80;24.70;;;5.60;99.90;;;;;;4842073;29;20054;-87
2024/03/09 06:20:26;;;;;;;45.90;24.95;;;5.60;99.90;;;;;;4840446;29;20041;-86
2024/03/09 06:22:53;;;;;;;41.63;24.70;;;5.70;99.90;;;;;;4840382;29;20029;-87
2024/03/09 06:25:22;;;;;;;48.75;26.23;;;5.70;99.90;;;;;;4838800;29;20057;-86
2024/03/09 06:27:49;;;;;;;41.88;23.67;;;5.70;99.90;;;;;;4840948;29;20050;-86
2024/03/09 06:30:15;;;;;;;40.38;23.42;;;5.70;99.90;;;;;;4840106;29;20055;-86
2024/03/09 06:32:43;;;;;;;43.33;23.58;;;5.70;99.90;;;;;;4839785;29;20038;-87
2024/03/09 06:35:09;;;;;;;37.92;22.35;;;5.70;99.90;;;;;;4839645;29;20041;-87
2024/03/09 06:37:35;;;;;;;44.00;24.70;;;5.70;99.90;;;;;;4839862;29;20114;-87
2024/03/09 06:40:04;;;;;;;40.40;23.45;;;5.70;99.90;;;;;;4839336;29;20475;-87
2024/03/09 06:42:30;;;;;;;40.75;23.13;;;5.70;99.90;;;;;;4839051;29;20057;-87
2024/03/09 06:44:56;;;;;;;44.85;23.52;;;5.70;99.90;;;;;;4842424;29;20867;-87
2024/03/09 06:47:22;;;;;;;42.53;23.90;;;5.70;99.90;;;;;;4844641;29;20471;-87
2024/03/09 06:49:48;;;;;;;44.33;24.17;;;5.70;99.90;;;;;;4844593;29;20026;-85
2024/03/09 06:52:15;;;;;;;41.42;23.23;;;5.70;99.90;;;;;;4844780;29;20029;-87
2024/03/09 06:54:41;;;;;;;39.15;22.83;;;5.70;99.90;;;;;;4850517;29;20033;-86
2024/03/09 06:57:09;;;;;;;43.72;23.38;;;5.70;99.90;;;;;;4850072;29;20030;-86
2024/03/09 06:59:37;;;;;;;40.15;23.90;;;5.80;99.90;;;;;;4848330;29;20030;-85
2024/03/09 07:02:03;;;;;;;51.17;24.25;;;5.70;99.90;;;;;;4843582;29;20033;-85
2024/03/09 07:04:29;;;;;;;43.15;23.95;;;5.80;99.90;;;;;;4843522;29;20193;-85
2024/03/09 07:06:56;;;;;;;43.05;23.27;;;5.80;99.90;;;;;;4847134;29;20041;-86
2024/03/09 07:09:22;;;;;;;41.25;23.45;;;5.80;99.90;;;;;;4836444;29;20038;-85
2024/03/09 07:11:51;;;;;;;41.42;24.70;;;5.90;99.90;;;;;;4843465;29;20105;-85
2024/03/09 07:14:18;;;;;;;37.47;22.65;;;5.90;99.90;;;;;;4845535;29;20030;-86
2024/03/09 07:16:45;;;;;;;41.25;22.70;;;5.90;99.90;;;;;;4843238;29;20026;-85
2024/03/09 07:19:10;;;;;;;35.95;21.52;;;5.90;99.90;;;;;;4851379;29;20041;-85
2024/03/09 07:21:36;;;;;;;35.70;21.90;;;5.90;99.90;;;;;;4843110;29;20474;-85
2024/03/09 07:24:02;;;;;;;38.28;22.90;;;6.00;99.90;;;;;;4843845;29;20030;-85
2024/03/09 07:26:27;;;;;;;38.50;22.30;;;5.90;99.90;;;;;;4843638;29;20113;-85
2024/03/09 07:28:54;;;;;;;35.53;21.05;;;6.00;99.90;;;;;;4843501;29;20044;-86
2024/03/09 07:31:22;;;;;;;39.90;23.67;;;6.00;99.90;;;;;;4843426;29;20086;-85
2024/03/09 07:33:50;;;;;;;38.70;22.50;;;6.10;99.90;;;;;;4843346;29;20114;-88
2024/03/09 07:36:17;;;;;;;37.10;22.73;;;6.10;99.90;;;;;;4840238;29;20034;-85
2024/03/09 07:38:45;;;;;;;47.65;24.52;;;6.10;99.90;;;;;;4843066;29;20077;-85
2024/03/09 07:41:11;;;;;;;34.30;21.35;;;6.10;99.90;;;;;;4843206;29;20034;-85
2024/03/09 07:43:38;;;;;;;37.35;21.70;;;6.10;99.90;;;;;;4842383;29;20180;-85
2024/03/09 07:46:04;;;;;;;35.08;22.05;;;6.10;99.90;;;;;;4843525;29;20498;-86
2024/03/09 07:48:30;;;;;;;38.40;21.73;;;6.10;99.90;;;;;;4841906;29;20105;-86
2024/03/09 07:50:56;;;;;;;37.35;21.27;;;6.20;99.90;;;;;;4841247;29;20995;-86
2024/03/09 07:53:22;;;;;;;39.75;22.33;;;6.20;99.90;;;;;;4843403;29;20103;-85
2024/03/09 07:55:47;;;;;;;39.08;22.65;;;6.20;99.90;;;;;;4843461;29;20026;-87
2024/03/09 07:58:13;;;;;;;40.20;21.92;;;6.20;99.90;;;;;;4844080;29;20037;-85
2024/03/09 08:00:38;;;;;;;37.03;20.77;;;6.30;99.90;;;;;;4844701;29;20055;-89
2024/03/09 08:03:05;;;;;;;34.10;21.25;;;6.30;99.90;;;;;;4845089;29;20432;-90
2024/03/09 08:05:31;;;;;;;36.08;21.00;;;6.90;99.90;;;;;;4844928;29;20030;-87
2024/03/09 08:07:58;;;;;;;36.45;21.73;;;6.40;99.90;;;;;;4845479;29;20091;-87
2024/03/09 08:10:25;;;;;;;44.05;23.20;;;6.40;99.90;;;;;;4845132;29;20030;-88
2024/03/09 08:12:53;;;;;;;34.85;21.23;;;6.50;99.90;;;;;;4841989;29;20117;-89
2024/03/09 08:15:19;;;;;;;33.42;21.35;;;6.60;99.90;;;;;;4844113;29;20026;-89
2024/03/09 08:17:47;;;;;;;33.90;20.58;;;6.70;99.90;;;;;;4842862;29;20046;-86
2024/03/09 08:20:18;;;;;;;33.55;20.55;;;6.80;99.90;;;;;;4844312;29;20524;-89
2024/03/09 08:22:45;;;;;;;33.92;20.52;;;6.80;99.90;;;;;;4844870;29;20475;-88
2024/03/09 08:25:12;;;;;;;35.92;20.15;;;6.90;99.90;;;;;;4844581;29;20034;-88
2024/03/09 08:27:39;;;;;;;32.85;19.80;;;6.90;99.90;;;;;;4844406;29;20033;-88
2024/03/09 08:30:14;;;;;;;37.90;20.00;;;7.00;99.90;;;;;;4844484;29;20074;-88
2024/03/09 08:32:43;;;;;;;28.83;19.52;;;7.00;99.90;;;;;;4841290;29;20027;-88
2024/03/09 08:35:09;;;;;;;30.10;19.77;;;7.10;99.90;;;;;;4843114;29;20037;-88
2024/03/09 08:37:41;;;;;;;30.83;19.42;;;7.10;99.90;;;;;;4844081;29;20034;-89
2024/03/09 08:40:08;;;;;;;34.05;19.35;;;7.20;99.90;;;;;;4844015;29;20041;-90
2024/03/09 08:42:34;;;;;;;37.33;20.75;;;7.20;99.90;;;;;;4844020;29;20538;-90
2024/03/09 08:45:00;;;;;;;35.28;21.08;;;7.20;99.90;;;;;;4842717;29;20086;-89
2024/03/09 08:47:26;;;;;;;35.92;20.63;;;7.20;99.90;;;;;;4841333;29;20068;-89
2024/03/09 08:49:51;;;;;;;32.80;18.98;;;7.30;99.90;;;;;;4844450;29;20033;-89
2024/03/09 08:52:18;;;;;;;37.85;21.08;;;7.30;99.90;;;;;;4841721;29;20061;-87
2024/03/09 08:54:44;;;;;;;28.13;19.08;;;7.40;99.90;;;;;;4841943;29;20184;-88
2024/03/09 08:57:11;;;;;;;31.70;20.25;;;7.40;99.90;;;;;;4842981;29;20101;-88
2024/03/09 08:59:40;;;;;;;41.30;22.10;;;7.50;99.90;;;;;;4843266;29;20088;-88
2024/03/09 09:02:06;;;;;;;32.33;19.25;;;7.50;99.90;;;;;;4843796;29;20029;-90
2024/03/09 09:04:34;;;;;;;33.22;19.38;;;7.60;99.90;;;;;;4844868;29;20030;-90
2024/03/09 09:07:00;;;;;;;32.67;20.33;;;7.70;99.90;;;;;;4843575;29;20034;-89
2024/03/09 09:09:26;;;;;;;32.53;20.02;;;7.70;99.90;;;;;;4843585;29;20492;-90
2024/03/09 09:11:52;;;;;;;32.38;19.48;;;7.80;99.90;;;;;;4842832;29;20041;-89
2024/03/09 09:14:19;;;;;;;33.83;19.83;;;7.90;99.90;;;;;;4844180;29;20091;-90
2024/03/09 09:16:48;;;;;;;29.95;19.52;;;7.90;99.90;;;;;;4841632;29;20030;-86
2024/03/09 09:19:13;;;;;;;31.15;20.48;;;8.00;99.90;;;;;;4841772;29;20045;-90
2024/03/09 09:21:39;;;;;;;29.30;18.75;;;8.00;99.90;;;;;;4841543;29;20033;-89
2024/03/09 09:24:05;;;;;;;30.17;19.50;;;8.00;99.90;;;;;;4842072;29;20036;-90
2024/03/09 09:26:31;;;;;;;30.38;19.13;;;8.00;99.90;;;;;;4842561;29;20026;-89
2024/03/09 09:28:57;;;;;;;29.42;19.40;;;8.10;99.90;;;;;;4842030;29;20538;-89
2024/03/09 09:31:22;;;;;;;27.73;18.25;;;8.10;99.90;;;;;;4841364;29;20034;-91
2024/03/09 09:33:49;;;;;;;27.83;17.95;;;8.20;99.90;;;;;;4842012;29;20040;-88
2024/03/09 09:36:16;;;;;;;27.90;17.95;;;8.20;99.90;;;;;;4841278;29;20109;-90
2024/03/09 09:38:41;;;;;;;32.60;19.73;;;8.30;99.90;;;;;;4839173;29;20101;-85
2024/03/09 09:41:08;;;;;;;29.55;19.15;;;8.30;99.90;;;;;;4842479;29;20061;-90
2024/03/09 09:43:37;;;;;;;32.75;20.27;;;8.60;99.90;;;;;;4841259;29;20137;-89
2024/03/09 09:46:03;;;;;;;27.92;17.95;;;8.60;99.90;;;;;;4838622;29;20436;-87
2024/03/09 09:48:32;;;;;;;31.13;18.67;;;8.70;99.90;;;;;;4842338;29;20034;-89
2024/03/09 09:50:58;;;;;;;27.17;17.73;;;8.80;99.90;;;;;;4841625;29;20109;-89
2024/03/09 09:53:24;;;;;;;23.38;17.30;;;8.80;99.90;;;;;;4842820;29;20086;-87
2024/03/09 09:55:50;;;;;;;32.45;18.45;;;8.90;99.90;;;;;;4841272;29;20026;-87
2024/03/09 09:58:16;;;;;;;31.60;18.25;;;8.90;99.90;;;;;;4841590;29;20034;-86
2024/03/09 10:00:43;;;;;;;31.25;18.00;;;9.00;99.90;;;;;;4841647;29;20037;-88
2024/03/09 10:03:10;;;;;;;23.15;16.10;;;9.00;99.90;;;;;;4841925;29;20034;-87
2024/03/09 10:05:39;;;;;;;30.70;18.20;;;9.10;99.90;;;;;;4842252;29;20428;-87
2024/03/09 10:08:09;;;;;;;29.67;17.15;;;9.10;99.90;;;;;;4842590;29;20041;-89
2024/03/09 10:10:37;;;;;;;;;;;9.10;99.90;;;;;;4841818;29;20037;-88
2024/03/09 10:13:06;;;;;;;25.42;16.98;;;9.10;99.90;;;;;;4842683;29;20373;-86
2024/03/09 10:15:35;;;;;;;27.35;17.38;;;9.20;99.90;;;;;;4841828;29;20475;-87
2024/03/09 10:18:02;;;;;;;27.60;17.60;;;9.20;99.90;;;;;;4840820;29;20034;-85
2024/03/09 10:20:34;;;;;;;24.05;16.80;;;9.30;99.90;;;;;;4843203;29;20034;-86
2024/03/09 10:23:04;;;;;;;26.88;17.25;;;9.30;99.90;;;;;;4847929;29;20112;-88
2024/03/09 10:25:34;;;;;;;28.35;17.52;;;9.40;99.90;;;;;;4846987;29;20509;-87
2024/03/09 10:28:04;;;;;;;33.65;18.42;;;9.50;99.90;;;;;;4844646;29;20030;-85
2024/03/09 10:30:30;;;;;;;24.33;16.33;;;9.60;99.90;;;;;;4849107;29;20037;-87
2024/03/09 10:32:56;;;;;;;27.60;17.35;;;9.70;99.90;;;;;;4848406;29;20025;-85
2024/03/09 10:35:25;;;;;;;26.40;17.35;;;9.70;99.90;;;;;;4850602;29;20065;-93
2024/03/09 10:37:55;;;;;;;26.20;17.98;;;9.80;99.90;;;;;;4845675;29;20090;-88
2024/03/09 10:40:22;;;;;;;27.70;18.10;;;9.80;99.90;;;;;;4846708;29;20450;-89
2024/03/09 10:42:50;;;;;;;31.92;17.95;;;9.90;99.90;;;;;;4845258;29;20061;-89
2024/03/09 10:45:17;;;;;;;31.30;18.48;;;9.90;99.90;;;;;;4845939;29;20490;-89
2024/03/09 10:47:50;;;;;;;25.40;16.50;;;10.00;99.90;;;;;;4845073;29;20045;-87
2024/03/09 10:50:35;;;;;;;25.48;17.90;;;10.00;99.90;;;;;;4844103;29;20038;-87
2024/03/09 10:53:13;;;;;;;22.58;15.65;;;10.10;99.90;;;;;;4844502;29;20061;-87
2024/03/09 10:55:53;;;;;;;22.67;16.45;;;10.10;99.90;;;;;;4844447;29;20072;-88
2024/03/09 10:58:28;;;;;;;25.48;16.50;;;10.20;99.90;;;;;;4845621;29;20056;-86
2024/03/09 11:00:55;;;;;;;26.08;16.60;;;10.30;99.90;;;;;;4846740;29;20116;-87
2024/03/09 11:03:23;;;;;;;26.70;16.50;;;10.30;99.90;;;;;;4857352;29;20658;-85
2024/03/09 11:05:49;;;;;;;22.23;15.98;;;10.40;99.90;;;;;;4858929;29;20090;-87
2024/03/09 11:08:16;;;;;;;29.38;17.48;;;10.40;99.90;;;;;;4829005;29;20077;-83
2024/03/09 11:10:43;;;;;;;26.40;17.63;;;10.40;99.90;;;;;;4836047;29;20081;-86
2024/03/09 11:13:10;;;;;;;21.10;15.50;;;10.40;99.90;;;;;;4844494;29;20054;-85
2024/03/09 11:15:40;;;;;;;23.40;17.20;;;10.50;99.90;;;;;;4842529;29;20060;-88
2024/03/09 11:18:10;;;;;;;23.97;16.77;;;10.50;99.90;;;;;;4842765;29;20098;-88
2024/03/09 11:21:01;;;;;;;22.08;16.20;;;10.50;99.90;;;;;;4844325;29;20030;-90
2024/03/09 11:23:31;;;;;;;24.60;17.63;;;10.40;99.90;;;;;;4844569;29;20034;-90
2024/03/09 11:25:59;;;;;;;26.65;16.45;;;10.40;99.90;;;;;;4842217;29;20733;-88
2024/03/09 11:28:46;;;;;;;24.35;17.02;;;10.40;99.90;;;;;;4841703;29;20038;-85
2024/03/09 11:31:28;;;;;;;26.35;17.33;;;10.40;99.90;;;;;;4836069;29;20091;-85
2024/03/09 11:33:59;;;;;;;24.70;16.17;;;10.30;99.90;;;;;;4841649;29;20037;-85
2024/03/09 11:37:01;;;;;;;22.55;15.98;;;10.20;99.90;;;;;;4841107;29;20032;-88
2024/03/09 11:39:31;;;;;;;29.25;16.85;;;10.30;99.90;;;;;;4842092;29;20150;-85
2024/03/09 11:42:00;;;;;;;25.73;17.08;;;10.30;99.90;;;;;;4838795;29;20064;-84
2024/03/09 11:44:27;;;;;;;25.75;17.40;;;10.40;99.90;;;;;;4840743;29;20044;-86
2024/03/09 11:46:56;;;;;;;25.55;17.52;;;10.40;99.90;;;;;;4841715;29;20033;-86
2024/03/09 11:49:27;;;;;;;27.73;18.58;;;10.60;99.90;;;;;;4840812;29;20034;-85
2024/03/09 11:51:59;;;;;;;24.70;17.77;;;10.70;99.90;;;;;;4841185;29;20041;-85
2024/03/09 11:54:28;;;;;;;26.20;17.35;;;10.70;99.90;;;;;;4840690;29;20029;-85
2024/03/09 11:56:55;;;;;;;24.15;17.00;;;10.80;99.90;;;;;;4841216;29;20037;-86
2024/03/09 11:59:21;;;;;;;23.85;16.27;;;10.80;99.90;;;;;;4842721;29;20129;-88
2024/03/09 12:01:50;;;;;;;30.60;18.17;;;10.70;99.90;;;;;;4842023;29;20117;-87
2024/03/09 12:04:19;;;;;;;28.80;19.05;;;10.70;99.90;;;;;;4840478;29;20040;-89
2024/03/09 12:06:44;;;;;;;23.80;16.88;;;10.70;99.90;;;;;;4842110;29;20490;-88
2024/03/09 12:09:13;;;;;;;23.65;15.82;;;10.70;99.90;;;;;;4843567;29;20042;-88
2024/03/09 12:11:42;;;;;;;25.95;17.33;;;10.70;99.90;;;;;;4843847;29;20372;-87
2024/03/09 12:14:07;;;;;;;22.85;16.80;;;10.80;99.90;;;;;;4828462;29;20117;-89
2024/03/09 12:16:34;;;;;;;21.90;15.88;;;10.70;99.90;;;;;;4842804;29;20117;-89
2024/03/09 12:19:05;;;;;;;21.63;16.10;;;10.80;99.90;;;;;;4842728;29;20042;-89
2024/03/09 12:21:33;;;;;;;22.75;15.88;;;10.90;99.90;;;;;;4848313;29;20665;-88
2024/03/09 12:24:01;;;;;;;24.42;16.30;;;10.90;99.90;;;;;;4843181;29;20439;-87
2024/03/09 12:26:28;;;;;;;23.27;14.90;;;11.00;99.90;;;;;;4847296;29;20116;-88
2024/03/09 12:29:03;;;;;;;20.85;15.32;;;11.20;99.90;;;;;;4841052;29;20030;-87
2024/03/09 12:31:29;;;;;;;23.35;15.88;;;11.50;99.90;;;;;;4834355;29;20034;-87
2024/03/09 12:33:55;;;;;;;23.10;15.02;;;11.30;99.90;;;;;;4840288;29;20029;-87
2024/03/09 12:36:23;;;;;;;20.58;14.80;;;11.40;99.90;;;;;;4842400;29;20045;-85